ROMMA est une association bénévole à but non lucratif. Votre soutien est indispensable : ADHERER à ROMMA ou FAIRE un DON

Grimentz - (CH, Suisse)

Alpes Valaisannes (1710 m)   Longitude: 07° 34' E   Latitude: 46° 11' N Station partenaire n°125
 

Détail journalier du     <<     >>

Température Precipitation Humidité Vent Dir Rafale Dir. rafale Ensol.
Heure (°C) (mm) (%) (km/h) (km/h) (min)
01:00 11.20505ONO15ONO0
02:00 10.70514ONO10O0
03:00 10.40513NO8NO0
04:00 10.60503ONO11O0
05:00 10.60511---6ONO0
06:00 10.20523NO10ONO0
07:00 10.40444ONO10O0
08:00 10.40434NO10ONO0
09:00 10.70472NO8NO5
10:00 14.80392SO6NO50
11:00 16.10382E10ESE60
12:00 15.60392SSO8SSO50
13:00 15.30462E10E30
14:00 15.60441SSE6ENE10
15:00 14.90451SE6SE15
16:00 14.605206S0
17:00 13.60542SSO16SSO0
18:00 12.405406SO0
19:00 12.10511---5ONO0
20:00 11.30593ONO10O0
21:00 10.20673NO11ONO0
22:00 10.70.2694ONO10O0
23:00 10.30722ONO10ONO0
minuit 9.607208SO0

Graphique du 23-10-2019

 

Serveur OMMA